Terminal Aerodrome Forecast
Issued by NWS

Home | Current Version | Previous Version | Text Only | Print | Product List | Glossary On
Versions: 1 2 3 4 5 6 7 8 9 10 11 12 13 14 15 16 17 18 19 20 21 22 23 24 25 26 27 28
591
FTUS46 KMTR 210548
TAFSFO
TAF
KSFO 210548Z 2106/2212 19030G40KT P6SM -SHRA BKN020 OVC030
      WS020/21050KT
     FM211200 21020G30KT P6SM -SHRA BKN030 BKN060
     FM212000 26025G30KT P6SM -SHRA BKN030 BKN050
     FM220300 26012KT P6SM BKN100=

USA.gov is the U.S. government's official web portal to all federal, state and local government web resources and services.